Time;durP1;ratioP1;P1;durP2;ratioP2;P2;SDS_P1;SDS_P2;PMS_P1;PMS_P2;Temp;Humidity;BMP_temperature;BMP_pressure;BME280_temperature;BME280_humidity;BME280_pressure;Samples;Min_cycle;Max_cycle;Signal;HPM_P1;HPM_P2
2021/07/15 00:00:10;;;;;;;2.60;1.80;;;29.00;69.50;;;;;;5104671;28;20039;-41
2021/07/15 00:02:36;;;;;;;2.72;1.70;;;29.00;69.50;;;;;;5104680;28;20032;-40
2021/07/15 00:05:12;;;;;;;2.97;1.77;;;29.00;69.50;;;;;;5105132;28;20038;-41
2021/07/15 00:07:38;;;;;;;2.50;2.13;;;29.00;69.60;;;;;;5105167;28;20751;-41
2021/07/15 00:10:25;;;;;;;2.50;2.00;;;29.00;69.60;;;;;;5104729;28;20099;-39
2021/07/15 00:12:51;;;;;;;2.40;1.83;;;29.00;69.60;;;;;;5090792;28;20080;-40
2021/07/15 00:15:19;;;;;;;4.22;1.95;;;29.00;69.60;;;;;;5086806;28;20040;-40
2021/07/15 00:17:47;;;;;;;2.67;1.88;;;29.00;69.60;;;;;;5105204;28;20139;-41
2021/07/15 00:20:14;;;;;;;2.65;2.17;;;29.00;69.60;;;;;;5120170;28;20043;-40
2021/07/15 00:22:41;;;;;;;;;;;29.00;70.40;;;;;;5105374;28;20024;-39
2021/07/15 00:25:09;;;;;;;2.28;1.80;;;29.00;69.60;;;;;;5104569;28;20662;-41
2021/07/15 00:27:37;;;;;;;4.28;2.40;;;28.90;69.60;;;;;;5104657;28;20465;-41
2021/07/15 00:30:05;;;;;;;1.98;1.77;;;28.90;69.70;;;;;;5104210;28;20036;-39
2021/07/15 00:32:31;;;;;;;2.53;1.60;;;28.90;69.70;;;;;;5104416;28;20027;-41
2021/07/15 00:34:57;;;;;;;3.05;2.35;;;28.90;69.70;;;;;;5104629;28;20024;-41
2021/07/15 00:37:23;;;;;;;2.63;1.80;;;28.90;69.70;;;;;;5104612;28;20021;-42
2021/07/15 00:39:49;;;;;;;2.97;1.93;;;28.90;69.70;;;;;;5104150;28;20492;-41
2021/07/15 00:42:16;;;;;;;2.63;1.73;;;28.90;69.70;;;;;;5104478;28;20106;-40
2021/07/15 00:44:42;;;;;;;2.40;1.73;;;28.90;69.70;;;;;;5104359;28;20047;-42
2021/07/15 00:47:08;;;;;;;2.20;2.00;;;28.90;69.80;;;;;;5104233;28;20035;-41
2021/07/15 00:49:34;;;;;;;4.50;1.60;;;28.90;69.80;;;;;;5104035;28;20031;-41
2021/07/15 00:52:00;;;;;;;3.20;1.83;;;28.90;69.70;;;;;;5104211;28;20024;-40
2021/07/15 00:54:26;;;;;;;3.10;2.27;;;28.90;69.80;;;;;;5085770;28;20079;-42
2021/07/15 00:56:52;;;;;;;2.90;1.83;;;28.90;69.70;;;;;;5104208;28;20043;-41
2021/07/15 00:59:21;;;;;;;2.80;2.10;;;28.90;69.80;;;;;;5085737;28;20048;-41
2021/07/15 01:01:47;;;;;;;3.38;2.00;;;28.90;69.80;;;;;;5103707;28;20028;-41
2021/07/15 01:04:14;;;;;;;2.28;1.65;;;28.80;69.70;;;;;;5085662;28;20035;-42
2021/07/15 01:06:40;;;;;;;;;;;28.80;69.70;;;;;;5066173;28;20052;-43
2021/07/15 01:09:06;;;;;;;3.15;1.92;;;28.80;70.40;;;;;;5083178;28;19904;-41
2021/07/15 01:11:45;;;;;;;2.33;1.77;;;28.80;69.70;;;;;;5083674;28;20030;-41
2021/07/15 01:14:15;;;;;;;2.67;1.77;;;28.80;69.70;;;;;;5083398;28;20050;-42
2021/07/15 01:16:49;;;;;;;2.22;1.58;;;28.80;69.80;;;;;;5065332;28;20028;-40
2021/07/15 01:19:37;;;;;;;2.15;1.58;;;28.80;69.80;;;;;;5065079;28;20025;-42
2021/07/15 01:22:29;;;;;;;3.20;1.63;;;28.80;69.80;;;;;;5085857;28;20024;-42
2021/07/15 01:25:20;;;;;;;2.38;1.70;;;28.70;69.70;;;;;;5098794;28;20036;-41
2021/07/15 01:27:55;;;;;;;3.53;1.80;;;28.70;69.80;;;;;;5088185;28;20051;-42
2021/07/15 01:30:23;;;;;;;2.15;1.58;;;28.70;69.70;;;;;;5102943;28;20024;-41
2021/07/15 01:33:09;;;;;;;2.20;1.77;;;28.70;69.70;;;;;;5103386;28;20056;-43
2021/07/15 01:35:47;;;;;;;2.72;1.83;;;28.70;69.80;;;;;;5085209;28;20031;-42
2021/07/15 01:38:14;;;;;;;3.63;1.98;;;28.70;69.80;;;;;;5086499;28;20020;-41
2021/07/15 01:40:45;;;;;;;1.98;1.55;;;28.70;69.80;;;;;;5084768;28;20028;-41
2021/07/15 01:43:18;;;;;;;2.55;1.80;;;28.70;69.90;;;;;;5085009;28;20087;-43
2021/07/15 01:45:44;;;;;;;2.42;1.90;;;28.70;69.90;;;;;;5103202;28;20032;-41
2021/07/15 01:48:11;;;;;;;2.80;1.83;;;28.60;69.80;;;;;;5103422;28;20031;-41
2021/07/15 01:50:37;;;;;;;2.67;1.83;;;28.60;69.80;;;;;;5068334;28;20040;-41
2021/07/15 01:53:04;;;;;;;2.13;1.87;;;28.60;69.90;;;;;;5103057;28;20115;-41
2021/07/15 01:55:30;;;;;;;4.35;1.88;;;28.60;69.90;;;;;;5048299;28;20273;-41
2021/07/15 01:57:56;;;;;;;3.45;1.70;;;28.60;69.90;;;;;;5064877;28;20032;-41
2021/07/15 02:00:22;;;;;;;2.50;1.87;;;28.60;69.90;;;;;;5091856;28;20576;-41
2021/07/15 02:02:48;;;;;;;2.10;1.52;;;28.60;69.90;;;;;;5085007;28;20024;-42
2021/07/15 02:05:15;;;;;;;2.87;1.80;;;28.50;69.90;;;;;;5087277;28;20082;-43
2021/07/15 02:07:41;;;;;;;5.32;2.15;;;28.50;69.90;;;;;;5088906;28;20256;-42
2021/07/15 02:10:09;;;;;;;4.23;1.80;;;28.50;69.90;;;;;;5072107;28;20524;-41
2021/07/15 02:12:36;;;;;;;2.65;1.67;;;28.50;69.90;;;;;;5089103;28;20416;-41
2021/07/15 02:15:03;;;;;;;3.42;1.65;;;28.50;69.90;;;;;;5072397;28;20023;-41
2021/07/15 02:17:29;;;;;;;2.15;1.95;;;28.50;69.90;;;;;;5107110;28;20031;-41
2021/07/15 02:19:56;;;;;;;2.47;1.77;;;28.50;69.90;;;;;;5088548;28;20054;-41
2021/07/15 02:22:23;;;;;;;2.97;1.83;;;28.50;69.90;;;;;;5089083;28;20087;-42
2021/07/15 02:24:49;;;;;;;3.80;2.35;;;28.50;69.90;;;;;;5088261;28;20038;-41
2021/07/15 02:27:15;;;;;;;4.03;1.83;;;28.40;69.70;;;;;;5088785;28;20059;-42
2021/07/15 02:29:42;;;;;;;2.65;1.83;;;28.40;69.70;;;;;;5088536;28;20028;-41
2021/07/15 02:32:09;;;;;;;3.60;1.92;;;28.40;69.70;;;;;;5106308;28;20024;-43
2021/07/15 02:34:58;;;;;;;2.40;1.50;;;28.40;69.70;;;;;;5106887;28;20036;-41
2021/07/15 02:37:34;;;;;;;3.35;1.85;;;28.40;69.70;;;;;;5084996;28;20472;-40
2021/07/15 02:40:04;;;;;;;2.40;1.90;;;28.40;69.60;;;;;;5086305;28;20048;-41
2021/07/15 02:42:31;;;;;;;3.83;1.70;;;28.40;69.60;;;;;;5086113;28;20039;-42
2021/07/15 02:44:57;;;;;;;2.77;1.60;;;28.30;69.60;;;;;;5086273;28;20051;-41
2021/07/15 02:47:23;;;;;;;2.00;1.60;;;28.30;69.50;;;;;;5068159;28;20020;-41
2021/07/15 02:49:49;;;;;;;2.47;1.60;;;28.30;69.60;;;;;;5086306;28;20300;-41
2021/07/15 02:52:16;;;;;;;2.50;1.70;;;28.30;69.60;;;;;;5085916;28;20031;-42
2021/07/15 02:54:42;;;;;;;1.85;1.63;;;28.30;69.60;;;;;;5068062;28;20058;-41
2021/07/15 02:57:30;;;;;;;2.13;1.92;;;28.30;69.60;;;;;;5068401;28;20101;-42
2021/07/15 03:00:10;;;;;;;2.88;1.60;;;28.30;69.70;;;;;;5091779;28;20024;-43
2021/07/15 03:03:21;;;;;;;1.85;1.40;;;28.20;69.60;;;;;;5121531;28;20077;-42
2021/07/15 03:06:14;;;;;;;3.20;1.65;;;28.20;69.60;;;;;;5023134;28;20042;-41
2021/07/15 03:08:51;;;;;;;4.03;1.92;;;28.20;69.50;;;;;;5023446;28;20030;-40
2021/07/15 03:11:17;;;;;;;3.37;1.77;;;28.20;69.60;;;;;;5006797;28;20037;-43
2021/07/15 03:13:44;;;;;;;2.67;1.95;;;28.20;69.60;;;;;;5006986;28;20025;-42
2021/07/15 03:16:11;;;;;;;2.72;1.80;;;28.20;69.40;;;;;;5006559;28;20176;-42
2021/07/15 03:18:38;;;;;;;2.78;1.88;;;28.20;69.50;;;;;;5006679;28;20034;-41
2021/07/15 03:21:07;;;;;;;3.75;1.60;;;28.10;69.40;;;;;;5006453;28;20033;-41
2021/07/15 03:23:34;;;;;;;4.30;2.00;;;28.10;69.30;;;;;;5006881;28;20053;-41
2021/07/15 03:26:01;;;;;;;2.50;1.65;;;28.10;69.50;;;;;;5006325;28;20034;-42
2021/07/15 03:28:32;;;;;;;2.27;1.70;;;28.10;69.50;;;;;;5006409;28;20049;-42
2021/07/15 03:31:08;;;;;;;2.30;1.50;;;28.10;69.40;;;;;;5006653;28;20073;-38
2021/07/15 03:33:35;;;;;;;2.97;1.90;;;28.10;69.40;;;;;;5038519;28;20057;-43
2021/07/15 03:36:04;;;;;;;2.90;1.70;;;28.10;69.40;;;;;;5039267;28;20045;-42
2021/07/15 03:38:34;;;;;;;3.25;1.70;;;28.00;69.20;;;;;;5006203;28;20025;-43
2021/07/15 03:41:03;;;;;;;2.22;1.52;;;28.00;69.20;;;;;;5006343;28;20037;-42
2021/07/15 03:43:30;;;;;;;2.45;1.73;;;28.00;69.20;;;;;;5094307;28;20036;-41
2021/07/15 03:45:56;;;;;;;2.87;1.90;;;28.00;69.20;;;;;;5086736;28;20427;-41
2021/07/15 03:48:24;;;;;;;2.28;1.70;;;28.00;69.20;;;;;;5087158;28;20110;-42
2021/07/15 03:50:50;;;;;;;3.95;1.90;;;28.00;69.20;;;;;;5087109;28;20050;-42
2021/07/15 03:53:16;;;;;;;2.67;1.80;;;27.90;69.20;;;;;;5086603;28;20028;-42
2021/07/15 03:55:42;;;;;;;1.97;1.73;;;27.90;69.20;;;;;;5070127;28;20265;-42
2021/07/15 03:58:09;;;;;;;3.60;1.70;;;27.90;69.20;;;;;;5069995;28;20555;-43
2021/07/15 04:00:37;;;;;;;;;;;27.90;69.20;;;;;;5086949;28;20058;-42
2021/07/15 04:03:20;;;;;;;3.85;1.73;;;27.90;69.10;;;;;;5104758;28;19908;-41
2021/07/15 04:05:47;;;;;;;3.38;1.77;;;27.90;69.10;;;;;;5086627;28;20075;-42
2021/07/15 05:55:29;;;;;;;2.10;1.55;;;27.20;68.90;;;;;;5061047;28;20083;-43
2021/07/15 05:57:56;;;;;;;5.70;1.77;;;27.20;68.90;;;;;;5082867;28;20059;-43
2021/07/15 06:01:11;;;;;;;3.77;1.83;;;27.20;69.00;;;;;;5092623;28;20035;-42
2021/07/15 06:13:47;;;;;;;2.10;1.83;;;27.10;69.10;;;;;;5102457;28;20038;-42
2021/07/15 06:16:14;;;;;;;3.45;1.85;;;27.10;69.10;;;;;;5102071;28;20670;-41
2021/07/15 06:18:40;;;;;;;2.50;1.73;;;27.10;69.10;;;;;;5102253;28;20025;-42
2021/07/15 06:21:07;;;;;;;2.55;1.70;;;27.10;69.00;;;;;;5102405;28;20056;-43
2021/07/15 06:23:33;;;;;;;3.63;1.75;;;27.10;69.20;;;;;;5102173;28;20054;-43
2021/07/15 06:26:00;;;;;;;2.40;1.75;;;27.00;69.00;;;;;;5083890;28;20039;-41
2021/07/15 06:28:27;;;;;;;2.25;1.85;;;27.00;68.80;;;;;;5101959;28;20036;-42
2021/07/15 06:30:53;;;;;;;2.75;1.80;;;27.00;68.80;;;;;;5102366;28;20028;-42
2021/07/15 06:33:19;;;;;;;2.55;1.67;;;27.00;68.80;;;;;;5102011;28;20021;-41
2021/07/15 06:35:49;;;;;;;3.13;2.10;;;27.00;68.80;;;;;;5102041;28;20385;-43
2021/07/15 06:38:16;;;;;;;1.75;1.33;;;27.00;69.60;;;;;;5102436;28;20115;-42
2021/07/15 06:40:44;;;;;;;2.58;2.00;;;27.00;68.80;;;;;;5101941;28;20031;-43
2021/07/15 06:43:10;;;;;;;3.22;1.73;;;26.90;68.70;;;;;;5101843;28;20039;-42
2021/07/15 06:45:36;;;;;;;3.73;1.63;;;26.90;68.80;;;;;;5101668;28;20095;-42
2021/07/15 06:48:02;;;;;;;2.93;2.03;;;26.90;68.80;;;;;;5101893;28;20059;-43
2021/07/15 06:50:29;;;;;;;2.90;1.90;;;26.90;68.80;;;;;;5103288;28;20097;-42
2021/07/15 06:52:55;;;;;;;1.77;1.60;;;26.90;68.70;;;;;;5105681;28;20264;-41
2021/07/15 06:55:21;;;;;;;2.35;1.90;;;26.90;68.90;;;;;;5105222;28;20035;-42
2021/07/15 06:57:47;;;;;;;2.53;1.80;;;26.90;68.80;;;;;;5105732;28;20039;-42
2021/07/15 07:00:15;;;;;;;2.97;2.05;;;26.80;68.80;;;;;;5097201;28;20096;-41
2021/07/15 07:02:42;;;;;;;3.65;1.88;;;26.80;68.80;;;;;;5085313;28;20024;-41
2021/07/15 07:05:09;;;;;;;;;;;26.80;68.80;;;;;;5089162;28;20028;-42
2021/07/15 07:07:35;;;;;;;2.38;1.60;;;26.80;68.80;;;;;;5105495;28;19930;-41
2021/07/15 07:10:01;;;;;;;3.28;1.90;;;26.80;68.90;;;;;;5105498;28;20051;-42
2021/07/15 07:12:28;;;;;;;2.58;1.55;;;26.80;68.90;;;;;;5105381;28;20036;-41
2021/07/15 07:14:54;;;;;;;3.53;1.75;;;26.80;68.90;;;;;;5105452;28;20021;-42
2021/07/15 07:17:20;;;;;;;2.33;1.70;;;26.70;68.90;;;;;;5104969;28;20039;-42
2021/07/15 07:19:46;;;;;;;2.22;1.73;;;26.70;69.00;;;;;;5104398;28;20092;-42
2021/07/15 07:22:12;;;;;;;2.97;1.90;;;26.70;68.90;;;;;;5105031;28;20095;-42
2021/07/15 07:24:38;;;;;;;3.67;2.13;;;26.70;69.00;;;;;;5104131;28;20036;-41
2021/07/15 07:27:04;;;;;;;3.15;1.98;;;26.70;68.90;;;;;;5104874;28;20040;-42
2021/07/15 07:29:30;;;;;;;3.00;1.80;;;26.70;69.00;;;;;;5105107;28;20032;-41
2021/07/15 07:31:57;;;;;;;2.45;1.55;;;26.70;69.00;;;;;;5105026;28;20020;-42
2021/07/15 07:34:23;;;;;;;3.38;2.00;;;26.70;69.00;;;;;;5104899;28;20034;-42
2021/07/15 07:36:49;;;;;;;2.47;1.67;;;26.70;69.00;;;;;;5104606;28;20063;-42
2021/07/15 07:39:16;;;;;;;1.87;1.60;;;26.70;69.00;;;;;;5104907;28;20036;-42
2021/07/15 07:41:42;;;;;;;3.42;2.00;;;26.60;68.90;;;;;;5104640;28;20024;-42
2021/07/15 07:44:08;;;;;;;2.67;1.70;;;26.60;68.90;;;;;;5104643;28;20770;-43
2021/07/15 07:46:34;;;;;;;2.15;1.60;;;26.60;68.90;;;;;;5104513;28;20082;-41
2021/07/15 07:49:00;;;;;;;2.10;1.70;;;26.60;68.90;;;;;;5104696;28;20024;-43
2021/07/15 07:51:29;;;;;;;3.00;1.65;;;26.60;69.00;;;;;;5104501;28;20318;-43
2021/07/15 07:53:56;;;;;;;2.83;1.70;;;26.60;69.00;;;;;;5104643;28;20705;-42
2021/07/15 07:56:23;;;;;;;3.15;1.75;;;26.60;69.00;;;;;;5103832;28;20056;-42
2021/07/15 07:58:49;;;;;;;3.15;1.83;;;26.50;68.90;;;;;;5104425;28;20024;-42
2021/07/15 08:01:16;;;;;;;2.83;1.80;;;26.50;68.90;;;;;;5104477;28;20042;-43
2021/07/15 08:03:42;;;;;;;2.55;1.58;;;26.50;69.00;;;;;;5085328;28;20032;-43
2021/07/15 08:06:09;;;;;;;1.50;1.40;;;26.50;68.90;;;;;;5103958;28;20070;-43
2021/07/15 08:08:38;;;;;;;2.73;1.70;;;26.50;69.00;;;;;;5104310;28;20061;-41
2021/07/15 08:11:04;;;;;;;2.08;1.88;;;26.50;69.10;;;;;;5104008;28;20032;-42
2021/07/15 08:13:30;;;;;;;2.45;1.80;;;26.50;69.00;;;;;;5104082;28;20024;-41
2021/07/15 08:15:56;;;;;;;2.28;1.85;;;26.50;68.90;;;;;;5103533;28;20031;-41
2021/07/15 08:18:23;;;;;;;2.50;1.70;;;26.40;68.90;;;;;;5104112;28;20065;-42
2021/07/15 08:20:49;;;;;;;2.25;1.75;;;26.40;69.00;;;;;;5103922;28;20696;-42
2021/07/15 08:23:15;;;;;;;2.83;1.83;;;26.40;69.00;;;;;;5103731;28;20036;-41
2021/07/15 08:25:41;;;;;;;1.90;1.65;;;26.40;69.10;;;;;;5103830;28;20104;-43
2021/07/15 08:28:08;;;;;;;1.98;1.60;;;26.40;69.10;;;;;;5103800;28;20023;-43
2021/07/15 08:30:34;;;;;;;3.90;1.63;;;26.40;69.00;;;;;;5103954;28;20032;-42
2021/07/15 08:33:01;;;;;;;1.73;1.45;;;26.40;69.10;;;;;;5103804;28;20024;-43
2021/07/15 08:35:27;;;;;;;2.05;1.83;;;26.40;69.10;;;;;;5085253;28;20035;-41
2021/07/15 08:37:54;;;;;;;2.00;1.80;;;26.30;69.00;;;;;;5103471;28;20031;-42
2021/07/15 08:40:20;;;;;;;;;;;26.30;69.10;;;;;;5104044;28;20353;-42
2021/07/15 08:42:46;;;;;;;2.90;1.70;;;26.30;69.10;;;;;;5103647;28;19911;-42
2021/07/15 08:45:12;;;;;;;2.67;1.90;;;26.30;69.10;;;;;;5103508;28;20126;-43
2021/07/15 08:47:39;;;;;;;5.22;2.00;;;26.30;69.20;;;;;;5103488;28;20016;-41
2021/07/15 08:50:06;;;;;;;2.00;1.70;;;26.30;69.20;;;;;;5103468;28;20085;-41
2021/07/15 08:52:34;;;;;;;1.58;1.42;;;26.30;69.20;;;;;;5103470;28;20032;-42
2021/07/15 08:55:05;;;;;;;2.30;1.80;;;26.20;69.10;;;;;;5103510;28;20028;-44
2021/07/15 08:57:31;;;;;;;3.60;2.25;;;26.20;69.10;;;;;;5085652;28;20059;-42
2021/07/15 08:59:57;;;;;;;1.93;1.67;;;26.20;69.20;;;;;;5103531;28;20020;-41
2021/07/15 09:02:24;;;;;;;3.50;1.60;;;26.20;69.20;;;;;;5085058;28;20035;-42
2021/07/15 09:04:50;;;;;;;3.10;1.70;;;26.20;69.20;;;;;;5103396;28;20040;-42
2021/07/15 09:07:17;;;;;;;2.75;1.73;;;26.20;69.20;;;;;;5103060;28;20107;-41
2021/07/15 09:09:46;;;;;;;2.60;1.60;;;26.20;69.20;;;;;;5103063;28;20032;-41
2021/07/15 09:12:16;;;;;;;2.13;1.55;;;26.20;69.20;;;;;;5085487;28;20660;-41
2021/07/15 09:14:52;;;;;;;1.80;1.55;;;26.20;69.20;;;;;;5103056;28;20073;-41
2021/07/15 09:17:33;;;;;;;1.80;1.60;;;26.10;69.20;;;;;;5102872;28;20028;-42
2021/07/15 09:19:59;;;;;;;2.58;1.83;;;26.10;69.10;;;;;;5103073;28;20031;-41
2021/07/15 09:22:25;;;;;;;2.60;1.55;;;26.10;69.20;;;;;;5102965;28;20047;-42
2021/07/15 09:24:52;;;;;;;1.93;1.60;;;26.10;69.20;;;;;;5102515;28;20092;-42
2021/07/15 09:27:25;;;;;;;3.60;1.60;;;26.10;69.20;;;;;;5084509;28;20028;-41
2021/07/15 09:30:11;;;;;;;1.55;1.40;;;26.10;69.30;;;;;;5103063;28;20028;-42
2021/07/15 09:32:50;;;;;;;2.10;1.67;;;26.10;69.30;;;;;;5102028;28;20027;-41
2021/07/15 09:35:36;;;;;;;2.33;1.65;;;26.10;69.30;;;;;;5101478;28;20032;-41
2021/07/15 09:38:10;;;;;;;2.90;1.95;;;26.10;69.30;;;;;;5102749;28;20028;-41
2021/07/15 09:40:37;;;;;;;3.05;1.58;;;26.10;69.40;;;;;;5102790;28;20028;-42
2021/07/15 09:43:25;;;;;;;1.88;1.60;;;26.00;69.30;;;;;;5102616;28;20113;-43
2021/07/15 09:45:56;;;;;;;1.98;1.77;;;26.00;69.30;;;;;;5102639;28;20523;-42
2021/07/15 09:48:23;;;;;;;3.60;1.60;;;26.00;69.30;;;;;;5102607;28;20024;-42
2021/07/15 09:50:51;;;;;;;2.85;1.65;;;26.00;69.30;;;;;;5102644;28;20028;-43
2021/07/15 09:53:21;;;;;;;2.30;1.65;;;26.00;69.30;;;;;;5102801;28;20066;-42
2021/07/15 09:55:48;;;;;;;2.15;1.70;;;26.00;69.30;;;;;;5102322;28;20024;-43
2021/07/15 09:58:14;;;;;;;1.70;1.58;;;26.00;69.40;;;;;;5084284;28;20663;-42
2021/07/15 10:00:45;;;;;;;1.88;1.42;;;25.90;69.30;;;;;;5102658;28;20028;-42
2021/07/15 10:03:14;;;;;;;1.88;1.40;;;25.90;69.30;;;;;;5102605;28;20059;-42
2021/07/15 10:05:54;;;;;;;2.35;1.80;;;25.90;69.30;;;;;;5102325;28;20040;-43
2021/07/15 10:08:28;;;;;;;1.77;1.63;;;25.90;69.30;;;;;;5102303;28;20016;-41
2021/07/15 10:10:55;;;;;;;3.22;1.98;;;25.90;69.40;;;;;;5102327;28;20028;-43
2021/07/15 10:13:22;;;;;;;4.00;1.77;;;25.90;69.40;;;;;;5102195;28;20028;-45
2021/07/15 10:15:49;;;;;;;2.40;1.58;;;25.90;69.30;;;;;;5084470;28;20028;-42
2021/07/15 10:18:34;;;;;;;1.70;1.58;;;25.90;69.40;;;;;;5083938;28;20020;-42
2021/07/15 10:21:00;;;;;;;1.60;1.50;;;25.80;69.40;;;;;;5101969;28;20043;-43
2021/07/15 10:23:36;;;;;;;2.08;1.70;;;25.80;69.40;;;;;;5102295;28;20027;-42
2021/07/15 10:26:03;;;;;;;2.53;1.50;;;25.80;69.40;;;;;;5085981;28;20126;-41
2021/07/15 10:28:30;;;;;;;3.13;2.30;;;25.80;69.50;;;;;;5106299;28;20020;-41
2021/07/15 10:30:57;;;;;;;2.28;1.50;;;25.80;69.40;;;;;;5106184;28;20060;-42
2021/07/15 10:33:24;;;;;;;2.10;1.75;;;25.80;69.40;;;;;;5106350;28;20027;-42
2021/07/15 10:35:51;;;;;;;3.80;2.10;;;25.80;70.20;;;;;;5071209;28;20038;-42
2021/07/15 10:38:17;;;;;;;;;;;25.80;69.40;;;;;;5088198;28;20024;-43
2021/07/15 10:40:44;;;;;;;2.05;1.50;;;25.80;69.50;;;;;;5087841;28;20702;-42
2021/07/15 10:43:10;;;;;;;3.08;1.70;;;25.80;69.50;;;;;;5087718;28;20036;-41
2021/07/15 10:45:37;;;;;;;2.88;1.50;;;25.70;69.50;;;;;;5106213;28;20032;-43
2021/07/15 10:48:03;;;;;;;2.03;1.75;;;25.70;69.50;;;;;;5070959;28;20024;-43
2021/07/15 10:50:29;;;;;;;1.90;1.70;;;25.70;69.40;;;;;;5087800;28;20047;-42
2021/07/15 10:52:56;;;;;;;2.40;1.55;;;25.70;69.50;;;;;;5087626;28;20054;-41
2021/07/15 10:55:24;;;;;;;3.53;1.70;;;25.70;69.60;;;;;;5071142;28;20035;-42
2021/07/15 10:57:51;;;;;;;4.13;1.60;;;25.70;69.60;;;;;;5087528;28;20051;-41
2021/07/15 11:00:24;;;;;;;1.77;1.40;;;25.70;69.50;;;;;;5105796;28;20050;-43
2021/07/15 11:03:17;;;;;;;1.92;1.40;;;25.70;69.60;;;;;;5105894;28;20028;-47
2021/07/15 11:05:49;;;;;;;2.58;1.52;;;25.60;69.60;;;;;;5087127;28;20086;-43
2021/07/15 11:08:16;;;;;;;3.08;1.80;;;25.60;69.50;;;;;;5105449;28;20473;-40
2021/07/15 11:10:43;;;;;;;2.08;1.88;;;25.60;69.60;;;;;;5105526;28;20036;-43
2021/07/15 11:13:10;;;;;;;1.80;1.55;;;25.60;69.60;;;;;;5105572;28;20027;-42
2021/07/15 11:15:46;;;;;;;;;;;25.60;69.60;;;;;;5105907;28;20036;-42
2021/07/15 11:18:44;;;;;;;2.03;1.58;;;25.60;69.60;;;;;;5105620;28;19904;-43
2021/07/15 11:21:26;;;;;;;1.70;1.40;;;25.60;69.60;;;;;;5105413;28;20035;-43
2021/07/15 11:24:21;;;;;;;2.92;1.50;;;25.60;70.40;;;;;;5105201;28;20067;-42
2021/07/15 11:26:47;;;;;;;2.00;1.60;;;25.50;69.70;;;;;;5105191;28;20597;-42
2021/07/15 11:29:13;;;;;;;3.75;1.85;;;25.50;69.60;;;;;;5104968;28;20032;-42
2021/07/15 11:31:52;;;;;;;1.60;1.40;;;25.50;69.60;;;;;;5105244;28;20081;-42
2021/07/15 11:34:38;;;;;;;2.85;1.42;;;25.50;69.60;;;;;;5104967;28;20261;-41
2021/07/15 11:37:33;;;;;;;2.90;1.70;;;25.50;70.40;;;;;;5103254;28;20032;-42
2021/07/15 11:40:00;;;;;;;2.67;1.55;;;25.50;69.70;;;;;;5103097;28;20032;-41
2021/07/15 11:42:27;;;;;;;2.40;1.55;;;25.50;69.80;;;;;;5086660;28;20027;-42
2021/07/15 11:45:03;;;;;;;2.78;1.52;;;25.50;69.80;;;;;;5086780;28;20185;-41
2021/07/15 11:47:54;;;;;;;2.28;1.65;;;25.40;69.70;;;;;;5104935;28;20028;-43
2021/07/15 11:50:39;;;;;;;2.70;1.55;;;25.40;69.70;;;;;;5087149;28;20479;-43
2021/07/15 11:53:25;;;;;;;2.42;1.50;;;25.40;69.80;;;;;;5104654;28;20031;-42
2021/07/15 11:55:53;;;;;;;2.10;1.38;;;25.40;69.70;;;;;;5104485;28;20063;-43
2021/07/15 11:58:49;;;;;;;1.63;1.52;;;25.40;69.80;;;;;;5104640;28;20061;-43
2021/07/15 12:01:31;;;;;;;2.13;1.50;;;25.40;69.90;;;;;;5104262;28;20024;-42
2021/07/15 12:04:01;;;;;;;2.53;1.50;;;25.40;69.90;;;;;;5104438;28;20043;-43
2021/07/15 12:06:29;;;;;;;1.92;1.40;;;25.40;69.90;;;;;;5104223;28;20036;-43
2021/07/15 12:09:12;;;;;;;1.70;1.50;;;25.40;69.80;;;;;;5104639;28;20024;-43
2021/07/15 12:11:39;;;;;;;2.20;1.50;;;25.40;69.90;;;;;;5104552;28;20116;-41
2021/07/15 12:14:06;;;;;;;1.65;1.48;;;25.40;69.90;;;;;;5085605;28;20016;-42
2021/07/15 12:16:34;;;;;;;1.93;1.57;;;25.40;70.00;;;;;;5104422;28;20024;-42
2021/07/15 12:19:08;;;;;;;3.25;1.95;;;25.40;69.90;;;;;;5104296;28;20298;-43
2021/07/15 12:21:34;;;;;;;2.35;1.48;;;25.40;69.90;;;;;;5085441;28;20762;-43
2021/07/15 12:24:13;;;;;;;3.28;1.75;;;25.40;70.00;;;;;;5104089;28;20024;-41
2021/07/15 12:26:40;;;;;;;2.33;1.60;;;25.40;69.90;;;;;;5104220;28;20046;-41
2021/07/15 12:29:08;;;;;;;2.30;1.50;;;25.40;70.00;;;;;;5104178;28;20035;-47
2021/07/15 12:31:34;;;;;;;2.10;1.40;;;25.40;70.00;;;;;;5103467;28;20032;-42
2021/07/15 12:34:05;;;;;;;1.92;1.52;;;25.40;69.90;;;;;;5095188;28;20024;-41
2021/07/15 12:36:32;;;;;;;1.52;1.38;;;25.40;70.00;;;;;;5103698;28;20028;-42
2021/07/15 12:39:00;;;;;;;2.33;1.45;;;25.40;70.00;;;;;;5103870;28;20028;-41
2021/07/15 12:41:28;;;;;;;2.80;1.60;;;25.40;70.00;;;;;;5103653;28;20032;-42
2021/07/15 12:44:05;;;;;;;2.20;1.83;;;25.40;70.00;;;;;;5103997;28;20028;-42
2021/07/15 12:46:38;;;;;;;1.58;1.30;;;25.40;70.00;;;;;;5103816;28;20039;-42
2021/07/15 12:49:26;;;;;;;2.33;1.70;;;25.40;70.00;;;;;;5103470;28;20763;-41
2021/07/15 12:51:57;;;;;;;1.77;1.40;;;25.40;70.00;;;;;;5103427;28;20030;-43
2021/07/15 12:56:56;;;;;;;2.22;1.50;;;25.40;70.00;;;;;;5103521;28;20048;-42
2021/07/15 12:59:26;;;;;;;1.65;1.50;;;25.40;70.00;;;;;;5103706;28;20043;-41
2021/07/15 13:01:52;;;;;;;2.67;1.60;;;25.40;70.00;;;;;;5103212;28;20035;-42
2021/07/15 13:04:22;;;;;;;2.08;1.33;;;25.40;70.10;;;;;;5103614;28;20058;-42
2021/07/15 13:06:50;;;;;;;1.70;1.35;;;25.40;70.20;;;;;;5083037;28;20035;-41
2021/07/15 13:14:35;;;;;;;1.40;1.30;;;25.40;70.30;;;;;;5083022;28;20047;-42
2021/07/15 13:17:01;;;;;;;3.35;1.67;;;25.50;70.30;;;;;;5065207;28;20025;-41
2021/07/15 13:19:33;;;;;;;1.50;1.40;;;25.50;70.30;;;;;;5083098;28;20028;-43
2021/07/15 13:22:10;;;;;;;3.88;1.73;;;25.50;70.40;;;;;;5082699;28;20490;-41
2021/07/15 13:24:37;;;;;;;1.77;1.55;;;25.50;70.30;;;;;;5097674;28;20031;-42
2021/07/15 13:27:04;;;;;;;1.88;1.60;;;25.50;70.40;;;;;;5102838;28;20032;-41
2021/07/15 13:29:34;;;;;;;1.50;1.40;;;25.50;70.30;;;;;;5103006;28;20024;-41
2021/07/15 13:32:17;;;;;;;2.92;1.67;;;25.60;70.50;;;;;;5102732;28;20041;-41
2021/07/15 13:34:48;;;;;;;3.13;1.55;;;25.60;70.40;;;;;;5102984;28;20028;-42
2021/07/15 13:37:32;;;;;;;2.25;1.40;;;25.60;70.40;;;;;;5102723;28;20516;-42
2021/07/15 13:40:02;;;;;;;1.98;1.50;;;25.60;70.30;;;;;;5087299;28;20028;-43
2021/07/15 13:42:35;;;;;;;1.60;1.48;;;25.60;70.30;;;;;;5102255;28;20062;-41
2021/07/15 13:45:04;;;;;;;1.55;1.35;;;25.60;70.30;;;;;;5102719;28;20036;-41
2021/07/15 13:47:37;;;;;;;1.50;1.40;;;25.60;70.30;;;;;;5102952;28;20111;-43
2021/07/15 13:50:16;;;;;;;2.30;1.50;;;25.70;70.40;;;;;;5085039;28;20055;-42
2021/07/15 13:52:43;;;;;;;1.60;1.40;;;25.70;70.30;;;;;;5084188;28;20028;-43
2021/07/15 13:55:11;;;;;;;2.60;1.50;;;25.70;70.30;;;;;;5084518;28;20162;-42
2021/07/15 13:57:43;;;;;;;3.00;1.60;;;25.70;70.20;;;;;;5083865;28;20044;-41
2021/07/15 14:00:16;;;;;;;1.75;1.40;;;25.80;70.30;;;;;;5101686;28;20027;-42
2021/07/15 14:02:44;;;;;;;2.17;1.48;;;25.80;70.30;;;;;;5102413;28;20081;-43
2021/07/15 14:05:11;;;;;;;3.55;1.70;;;25.80;70.30;;;;;;5102554;28;20050;-43
2021/07/15 14:07:37;;;;;;;1.50;1.35;;;25.80;70.30;;;;;;5102574;28;20040;-41
2021/07/15 14:10:14;;;;;;;1.90;1.40;;;25.80;70.30;;;;;;5102486;28;20036;-43
2021/07/15 14:12:41;;;;;;;2.30;1.48;;;25.80;70.30;;;;;;5102137;28;20039;-41
2021/07/15 14:15:27;;;;;;;;;;;25.90;70.30;;;;;;5102980;28;20051;-41
2021/07/15 14:18:11;;;;;;;2.13;1.50;;;25.90;70.20;;;;;;5101966;28;19912;-43
2021/07/15 14:20:44;;;;;;;2.78;1.92;;;25.90;70.20;;;;;;5102248;28;20024;-41
2021/07/15 14:23:12;;;;;;;2.58;1.70;;;25.90;70.30;;;;;;5101345;28;20050;-41
2021/07/15 14:25:39;;;;;;;1.80;1.42;;;25.90;70.30;;;;;;5102528;28;20131;-41
2021/07/15 14:28:06;;;;;;;2.38;1.73;;;26.00;70.40;;;;;;5083918;28;20051;-42
2021/07/15 14:30:33;;;;;;;2.60;1.93;;;26.00;70.50;;;;;;5102452;28;20140;-43
2021/07/15 14:32:59;;;;;;;2.55;1.40;;;26.00;70.50;;;;;;5083963;28;20073;-42
2021/07/15 14:35:27;;;;;;;3.73;1.70;;;26.10;70.60;;;;;;5083918;28;20028;-42
2021/07/15 14:37:53;;;;;;;1.73;1.45;;;26.10;70.60;;;;;;5102540;28;20267;-42
2021/07/15 14:40:20;;;;;;;2.83;1.83;;;26.10;70.60;;;;;;5101980;28;20028;-41
2021/07/15 14:42:46;;;;;;;1.43;1.33;;;26.20;70.70;;;;;;5102328;28;20641;-42
2021/07/15 14:45:13;;;;;;;1.60;1.48;;;26.20;70.70;;;;;;5101825;28;20087;-42
2021/07/15 14:47:39;;;;;;;1.55;1.45;;;26.20;70.70;;;;;;5102214;28;20035;-41
2021/07/15 14:50:06;;;;;;;1.60;1.50;;;26.20;70.70;;;;;;5102175;28;20024;-42
2021/07/15 14:52:32;;;;;;;;;;;26.30;70.80;;;;;;5102193;28;20047;-43
2021/07/15 14:54:58;;;;;;;2.00;1.58;;;26.30;70.80;;;;;;5083811;28;19915;-41
2021/07/15 14:57:25;;;;;;;1.42;1.30;;;26.40;70.70;;;;;;5102052;28;20043;-43
2021/07/15 14:59:51;;;;;;;1.48;1.33;;;26.30;70.70;;;;;;5102283;28;20572;-43
2021/07/15 15:02:17;;;;;;;1.67;1.50;;;26.40;70.70;;;;;;5101942;28;20093;-42
2021/07/15 15:04:43;;;;;;;1.67;1.58;;;26.40;70.70;;;;;;5101926;28;20028;-42
2021/07/15 15:07:09;;;;;;;2.75;1.60;;;26.40;70.60;;;;;;5101945;28;20043;-43